LGSK

Skiathos Island National Airport

Skiathos, Greece
TAF LGSK 251700Z 2518/2603 VRB05KT 9999 FEW020
Issued Valid From Valid To
Apr-25 @ 17:00 UTC
(an hour ago)
Apr-25 @ 18:00 UTC
(a minute ago)
Apr-26 @ 03:00 UTC
(in 9 hours)
Apr-25 @ 18:00 to Apr-26 @ 03:00
TAF LGSK 251700Z 2518/2603 VRB05KT 9999 FEW020
Wind Visibility Clouds
Variable at 5 knots 10,000+ meters
  • Few at 2,000' AGL
TAF LGSK 251700Z 2518/2603 VRB05KT 9999 FEW020
Issued Apr-25 @ 17:00 UTC
(an hour ago)
Valid From Apr-25 @ 18:00 UTC
(a minute ago)
Valid To Apr-26 @ 03:00 UTC
(in 9 hours)
Apr-25 @ 18:00 - Apr-26 @ 03:00
Wind Visibility
Variable at 5 knots 10,000+ meters
Clouds
  • Few at 2,000' AGL